Time;durP1;ratioP1;P1;durP2;ratioP2;P2;SDS_P1;SDS_P2;PMS_P1;PMS_P2;Temp;Humidity;BMP_temperature;BMP_pressure;BME280_temperature;BME280_humidity;BME280_pressure;Samples;Min_cycle;Max_cycle;Signal;HPM_P1;HPM_P2
2022/10/09 00:00:03;;;;;;;73.20;14.40;;;7.30;99.90;;;;;;5035267;28;20276;-86
2022/10/09 00:02:29;;;;;;;69.50;9.73;;;7.20;99.90;;;;;;5035086;28;20176;-86
2022/10/09 00:04:56;;;;;;;75.40;14.47;;;7.30;99.90;;;;;;5017378;28;20485;-86
2022/10/09 00:07:22;;;;;;;71.35;14.02;;;7.20;99.90;;;;;;5034900;28;20208;-86
2022/10/09 00:09:47;;;;;;;71.97;14.13;;;7.20;99.90;;;;;;5034916;28;20290;-86
2022/10/09 00:12:13;;;;;;;75.30;15.20;;;7.10;99.90;;;;;;5035086;28;20192;-85
2022/10/09 00:14:39;;;;;;;70.47;14.10;;;7.10;99.90;;;;;;5035091;28;20216;-85
2022/10/09 00:17:04;;;;;;;74.50;15.90;;;7.00;99.90;;;;;;5034966;28;20166;-86
2022/10/09 00:19:30;;;;;;;71.33;14.97;;;7.00;99.90;;;;;;5035256;28;20695;-86
2022/10/09 00:21:55;;;;;;;70.40;15.67;;;7.00;99.90;;;;;;5016387;28;20268;-86
2022/10/09 00:24:21;;;;;;;75.93;16.03;;;6.90;99.90;;;;;;5034707;28;20292;-86
2022/10/09 00:26:47;;;;;;;72.50;15.27;;;6.90;99.90;;;;;;5034693;28;20211;-86
2022/10/09 00:29:13;;;;;;;79.10;16.00;;;6.90;99.90;;;;;;5034557;28;20181;-86
2022/10/09 00:31:38;;;;;;;79.20;14.40;;;6.80;99.90;;;;;;5034579;28;20764;-86
2022/10/09 00:34:04;;;;;;;69.97;13.50;;;6.90;99.90;;;;;;5034515;28;20201;-86
2022/10/09 00:36:30;;;;;;;72.47;13.47;;;6.90;99.90;;;;;;5034506;28;20161;-86
2022/10/09 00:38:55;;;;;;;74.20;14.40;;;6.90;99.90;;;;;;5034309;28;20250;-86
2022/10/09 00:41:27;;;;;;;71.50;14.07;;;6.90;99.90;;;;;;5034659;28;20161;-86
2022/10/09 00:43:56;;;;;;;70.55;14.52;;;6.90;99.90;;;;;;5016683;28;20595;-86
2022/10/09 00:46:44;;;;;;;72.32;15.05;;;6.90;99.90;;;;;;5034345;28;20161;-86
2022/10/09 00:49:31;;;;;;;71.40;14.52;;;6.80;99.90;;;;;;5034484;28;20189;-86
2022/10/09 00:52:01;;;;;;;73.13;16.58;;;6.70;99.90;;;;;;5017614;28;20509;-86
2022/10/09 00:54:30;;;;;;;72.68;16.75;;;6.70;99.90;;;;;;5034775;28;20149;-86
2022/10/09 00:56:56;;;;;;;79.18;16.95;;;7.00;99.90;;;;;;5034378;28;20244;-86
2022/10/09 00:59:23;;;;;;;78.80;23.83;;;7.10;99.90;;;;;;5033905;28;20761;-86
2022/10/09 01:01:49;;;;;;;81.60;28.70;;;7.10;99.90;;;;;;5034259;28;20189;-86
2022/10/09 01:04:14;;;;;;;81.60;33.97;;;7.20;99.90;;;;;;5016325;28;20204;-86
2022/10/09 01:06:49;;;;;;;80.47;33.73;;;7.20;99.90;;;;;;5034062;28;20181;-86
2022/10/09 01:09:22;;;;;;;75.93;26.30;;;7.20;99.90;;;;;;5033818;28;20234;-86
2022/10/09 01:12:21;;;;;;;82.07;34.85;;;7.30;99.90;;;;;;5034139;28;20486;-86
2022/10/09 01:15:01;;;;;;;78.07;33.28;;;7.20;99.90;;;;;;5033882;28;20161;-86
2022/10/09 01:17:40;;;;;;;75.90;30.50;;;7.10;99.90;;;;;;5033878;28;20208;-85
2022/10/09 01:20:27;;;;;;;81.10;37.55;;;7.10;99.90;;;;;;5016846;28;20650;-85
2022/10/09 01:23:09;;;;;;;83.38;41.20;;;7.10;99.90;;;;;;5034228;28;20169;-85
2022/10/09 01:25:43;;;;;;;79.63;38.25;;;7.00;99.90;;;;;;5033940;28;20149;-86
2022/10/09 01:28:10;;;;;;;80.28;34.05;;;6.90;99.90;;;;;;5033864;28;20180;-86
2022/10/09 01:30:36;;;;;;;89.82;37.05;;;6.90;99.90;;;;;;5016067;28;20196;-86
2022/10/09 01:33:03;;;;;;;77.97;36.83;;;6.90;99.90;;;;;;5033503;28;20596;-85
2022/10/09 01:35:32;;;;;;;85.88;32.25;;;6.80;99.90;;;;;;5033357;28;20164;-85
2022/10/09 01:38:01;;;;;;;79.65;29.65;;;6.90;99.90;;;;;;5016656;28;20641;-86
2022/10/09 01:40:27;;;;;;;80.30;33.17;;;6.90;99.90;;;;;;5033392;28;20165;-86
2022/10/09 01:42:54;;;;;;;86.50;32.13;;;6.80;99.90;;;;;;5033418;28;20177;-86
2022/10/09 01:45:20;;;;;;;82.60;35.03;;;6.80;99.90;;;;;;5033326;28;20157;-86
2022/10/09 01:47:46;;;;;;;77.70;32.47;;;6.90;99.90;;;;;;5033220;28;20169;-86
2022/10/09 01:50:20;;;;;;;84.40;40.93;;;6.80;99.90;;;;;;5033510;28;20653;-86
2022/10/09 01:52:52;;;;;;;78.82;34.05;;;6.80;99.90;;;;;;5016188;28;20164;-86
2022/10/09 01:55:33;;;;;;;78.90;32.95;;;6.80;99.90;;;;;;5033585;28;20172;-85
2022/10/09 01:58:03;;;;;;;79.97;32.45;;;6.80;99.90;;;;;;5033615;28;20645;-86
2022/10/09 02:00:52;;;;;;;86.10;39.70;;;6.70;99.90;;;;;;5033501;28;20166;-86
2022/10/09 02:03:18;;;;;;;79.70;34.15;;;6.70;99.90;;;;;;5015477;28;20192;-86
2022/10/09 02:05:45;;;;;;;83.50;42.92;;;6.70;99.90;;;;;;5033599;28;20173;-86
2022/10/09 02:08:15;;;;;;;80.03;36.97;;;6.70;99.90;;;;;;5033689;28;20239;-86
2022/10/09 02:10:43;;;;;;;80.68;37.92;;;6.70;99.90;;;;;;5016604;28;20183;-86
2022/10/09 02:13:09;;;;;;;79.15;35.80;;;6.70;99.90;;;;;;5033905;28;20164;-86
2022/10/09 02:16:00;;;;;;;79.77;32.20;;;6.70;99.90;;;;;;5033753;28;20165;-86
2022/10/09 02:18:41;;;;;;;76.45;30.08;;;6.70;99.90;;;;;;5014270;28;20416;-86
2022/10/09 02:21:13;;;;;;;82.03;33.30;;;6.60;99.90;;;;;;5033892;28;20276;-86
2022/10/09 02:23:40;;;;;;;78.93;32.58;;;6.60;99.90;;;;;;5034346;28;20633;-86
2022/10/09 02:26:07;;;;;;;79.00;33.70;;;6.50;99.90;;;;;;5034059;28;20243;-86
2022/10/09 02:28:34;;;;;;;79.22;30.17;;;6.40;99.90;;;;;;5033968;28;20695;-86
2022/10/09 02:31:12;;;;;;;77.25;32.55;;;6.40;99.90;;;;;;5016853;28;20696;-86
2022/10/09 02:33:37;;;;;;;78.68;34.40;;;6.30;99.90;;;;;;5035043;28;20153;-86
2022/10/09 02:36:03;;;;;;;81.70;39.63;;;6.30;99.90;;;;;;5034281;28;20168;-86
2022/10/09 02:38:29;;;;;;;79.50;37.13;;;6.20;99.90;;;;;;5033564;28;20181;-86
2022/10/09 02:40:59;;;;;;;76.37;30.80;;;6.20;99.90;;;;;;5033048;28;20158;-86
2022/10/09 02:43:25;;;;;;;77.95;31.55;;;6.20;99.90;;;;;;5015340;28;20165;-86
2022/10/09 02:45:51;;;;;;;78.30;32.47;;;6.20;99.90;;;;;;5016102;28;20256;-86
2022/10/09 02:48:16;;;;;;;79.47;33.80;;;6.20;99.90;;;;;;5036329;28;20486;-86
2022/10/09 02:50:42;;;;;;;80.30;40.93;;;6.20;99.90;;;;;;5036494;28;20652;-86
2022/10/09 02:53:08;;;;;;;86.20;41.17;;;6.20;99.90;;;;;;5036696;28;20161;-86
2022/10/09 02:55:35;;;;;;;81.37;37.83;;;6.20;99.90;;;;;;5019512;28;20192;-86
2022/10/09 02:58:01;;;;;;;75.05;29.17;;;6.20;99.90;;;;;;5037079;28;20181;-86
2022/10/09 03:00:26;;;;;;;82.10;44.97;;;6.20;99.90;;;;;;5018482;28;20629;-86
2022/10/09 03:02:52;;;;;;;87.80;47.40;;;6.20;99.90;;;;;;5036259;28;20408;-86
2022/10/09 03:05:18;;;;;;;87.77;45.23;;;6.30;99.90;;;;;;5036351;28;20260;-86
2022/10/09 03:07:50;;;;;;;84.37;42.73;;;6.30;99.90;;;;;;5036345;28;20161;-86
2022/10/09 03:10:19;;;;;;;85.28;47.42;;;6.30;99.90;;;;;;5036359;28;20177;-86
2022/10/09 03:12:45;;;;;;;85.30;48.15;;;6.20;99.90;;;;;;5036121;28;20161;-86
2022/10/09 03:15:12;;;;;;;82.73;49.87;;;6.30;99.90;;;;;;5036243;28;20161;-86
2022/10/09 03:17:38;;;;;;;80.57;43.75;;;6.30;99.90;;;;;;5036199;28;20165;-86
2022/10/09 03:20:04;;;;;;;88.17;50.27;;;6.30;99.90;;;;;;5035928;28;20163;-86
2022/10/09 03:22:29;;;;;;;82.50;47.10;;;6.30;99.90;;;;;;5036701;28;20400;-86
2022/10/09 03:24:55;;;;;;;80.70;41.90;;;6.30;99.90;;;;;;5018101;28;20180;-86
2022/10/09 03:27:21;;;;;;;80.37;43.23;;;6.20;99.90;;;;;;5036072;28;20165;-86
2022/10/09 03:29:46;;;;;;;85.63;44.33;;;6.20;99.90;;;;;;5035569;28;20196;-86
2022/10/09 03:32:12;;;;;;;83.67;46.50;;;6.20;99.90;;;;;;5035940;28;20621;-86
2022/10/09 03:34:38;;;;;;;82.10;40.83;;;6.20;99.90;;;;;;5036220;28;20605;-86
2022/10/09 03:37:04;;;;;;;79.67;38.20;;;6.20;99.90;;;;;;5017934;28;20196;-86
2022/10/09 03:39:29;;;;;;;82.07;39.65;;;6.10;99.90;;;;;;5036063;28;20213;-86
2022/10/09 03:41:55;;;;;;;81.10;43.60;;;6.10;99.90;;;;;;5035570;28;20601;-86
2022/10/09 03:44:21;;;;;;;77.07;30.33;;;6.10;99.90;;;;;;5035624;28;20204;-86
2022/10/09 03:46:46;;;;;;;76.67;29.43;;;6.10;99.90;;;;;;5017750;28;20176;-86
2022/10/09 03:49:12;;;;;;;83.03;30.80;;;6.10;99.90;;;;;;5035291;28;20236;-86
2022/10/09 03:51:38;;;;;;;76.07;23.90;;;6.20;99.90;;;;;;5035671;28;20614;-86
2022/10/09 03:54:04;;;;;;;79.03;33.43;;;6.10;99.90;;;;;;5035338;28;20189;-86
2022/10/09 03:56:30;;;;;;;75.78;27.70;;;6.10;99.90;;;;;;5035147;28;20403;-86
2022/10/09 03:58:56;;;;;;;76.47;30.50;;;6.10;99.90;;;;;;5035115;28;20284;-86
2022/10/09 04:01:21;;;;;;;81.17;25.90;;;6.10;99.90;;;;;;5035145;28;20173;-87
2022/10/09 04:03:47;;;;;;;74.40;19.97;;;6.10;99.90;;;;;;5035129;28;20633;-87
2022/10/09 04:06:12;;;;;;;73.60;19.90;;;6.10;99.90;;;;;;5034974;28;20260;-87
2022/10/09 04:08:38;;;;;;;73.07;22.33;;;6.10;99.90;;;;;;5035039;28;20189;-86
2022/10/09 04:11:04;;;;;;;75.80;26.93;;;6.10;99.90;;;;;;5016791;28;20173;-86
2022/10/09 04:13:30;;;;;;;78.27;30.33;;;6.10;99.90;;;;;;5035249;28;20170;-87
2022/10/09 04:15:56;;;;;;;80.03;22.73;;;6.10;99.90;;;;;;5034895;28;20400;-87
2022/10/09 04:18:21;;;;;;;72.23;19.80;;;6.10;99.90;;;;;;5016977;28;20424;-86
2022/10/09 04:20:49;;;;;;;76.93;21.00;;;6.10;99.90;;;;;;5034785;28;20192;-86
2022/10/09 04:23:16;;;;;;;74.65;21.63;;;6.10;99.90;;;;;;5016928;28;20415;-87
2022/10/09 04:25:41;;;;;;;74.43;18.63;;;6.10;99.90;;;;;;5035269;28;20157;-87
2022/10/09 04:28:07;;;;;;;72.07;16.03;;;6.20;99.90;;;;;;5017139;28;20679;-87
2022/10/09 04:30:33;;;;;;;72.70;17.40;;;6.20;99.90;;;;;;5034855;28;20189;-86
2022/10/09 04:32:58;;;;;;;69.60;13.93;;;6.20;99.90;;;;;;5034633;28;20166;-86
2022/10/09 04:35:24;;;;;;;70.93;15.53;;;6.10;99.90;;;;;;5035053;28;20195;-87
2022/10/09 04:37:50;;;;;;;71.17;15.60;;;6.10;99.90;;;;;;5034898;28;20185;-87
2022/10/09 04:40:15;;;;;;;74.87;19.93;;;6.10;99.90;;;;;;5034358;28;20161;-87
2022/10/09 04:42:41;;;;;;;71.97;16.97;;;6.00;99.90;;;;;;5034323;28;20196;-87
2022/10/09 04:45:07;;;;;;;70.03;14.17;;;6.00;99.90;;;;;;5034362;28;20196;-87
2022/10/09 04:47:33;;;;;;;72.20;14.10;;;6.00;99.90;;;;;;5034179;28;20193;-87
2022/10/09 04:49:59;;;;;;;70.07;12.68;;;6.00;99.90;;;;;;5016406;28;20250;-87
2022/10/09 04:52:25;;;;;;;70.97;13.50;;;5.90;99.90;;;;;;5034488;28;20169;-87
2022/10/09 04:54:50;;;;;;;71.47;13.33;;;6.00;99.90;;;;;;5016611;28;20173;-86
2022/10/09 04:57:16;;;;;;;69.80;13.00;;;5.90;99.90;;;;;;5034079;28;20392;-86
2022/10/09 04:59:42;;;;;;;73.93;15.63;;;5.90;99.90;;;;;;5033956;28;20537;-86
2022/10/09 05:02:08;;;;;;;71.70;15.20;;;5.90;99.90;;;;;;5016876;28;20173;-86
2022/10/09 05:04:33;;;;;;;68.90;11.90;;;5.90;99.90;;;;;;5034572;28;20179;-86
2022/10/09 05:06:59;;;;;;;73.20;15.00;;;5.80;99.90;;;;;;5034138;28;20181;-86
2022/10/09 05:09:24;;;;;;;73.07;14.83;;;5.80;99.90;;;;;;5015581;28;20284;-86
2022/10/09 05:11:50;;;;;;;70.33;13.77;;;5.80;99.90;;;;;;5016142;28;20169;-86
2022/10/09 05:14:16;;;;;;;73.00;14.33;;;5.80;99.90;;;;;;5016999;28;20165;-86
2022/10/09 05:16:42;;;;;;;70.53;13.77;;;5.80;99.90;;;;;;5015950;28;20169;-86
2022/10/09 05:19:07;;;;;;;70.43;12.43;;;5.80;99.90;;;;;;5033665;28;20263;-86
2022/10/09 05:21:34;;;;;;;72.13;10.80;;;5.70;99.90;;;;;;5034218;28;20165;-86
2022/10/09 05:23:59;;;;;;;73.13;12.80;;;5.70;99.90;;;;;;5015902;28;20513;-86
2022/10/09 05:26:26;;;;;;;72.13;14.70;;;5.70;99.90;;;;;;5033880;28;20195;-86
2022/10/09 05:28:52;;;;;;;70.55;13.80;;;5.70;99.90;;;;;;5015987;28;20208;-86
2022/10/09 05:31:24;;;;;;;72.78;14.63;;;5.70;99.90;;;;;;5033475;28;20248;-86
2022/10/09 05:33:50;;;;;;;72.72;16.00;;;5.70;99.90;;;;;;5033436;28;20295;-86
2022/10/09 05:36:16;;;;;;;75.40;14.33;;;5.70;99.90;;;;;;5033704;28;20188;-86
2022/10/09 05:38:46;;;;;;;71.25;14.02;;;5.60;99.90;;;;;;5016157;28;20428;-86
2022/10/09 05:41:15;;;;;;;70.05;14.23;;;5.60;99.90;;;;;;5033384;28;20509;-86
2022/10/09 05:43:42;;;;;;;72.50;13.23;;;5.60;99.90;;;;;;5033285;28;20168;-86
2022/10/09 05:46:11;;;;;;;71.10;14.10;;;5.60;99.90;;;;;;5015546;28;20173;-86
2022/10/09 05:48:42;;;;;;;71.28;13.65;;;5.60;99.90;;;;;;5033134;28;20208;-86
2022/10/09 05:51:16;;;;;;;72.68;14.10;;;5.60;99.90;;;;;;5033469;28;20165;-86
2022/10/09 05:53:43;;;;;;;69.30;11.70;;;5.60;99.90;;;;;;5033542;28;20518;-86
2022/10/09 05:56:20;;;;;;;72.88;12.70;;;5.60;99.90;;;;;;5033452;28;20185;-86
2022/10/09 05:59:13;;;;;;;70.38;12.13;;;5.60;99.90;;;;;;5033393;28;20645;-86
2022/10/09 06:01:42;;;;;;;75.20;13.23;;;5.60;99.90;;;;;;5031785;28;20200;-86
2022/10/09 06:04:15;;;;;;;74.25;12.88;;;5.60;99.90;;;;;;5033334;28;20275;-86
2022/10/09 06:06:41;;;;;;;70.60;12.30;;;5.60;99.90;;;;;;5032964;28;20181;-89
2022/10/09 06:09:13;;;;;;;73.53;12.80;;;5.70;99.90;;;;;;5033138;28;20203;-89
2022/10/09 06:11:39;;;;;;;71.03;12.23;;;5.70;99.90;;;;;;5033015;28;20150;-89
2022/10/09 06:14:07;;;;;;;71.28;13.38;;;5.70;99.90;;;;;;5033005;28;20700;-89
2022/10/09 06:16:39;;;;;;;72.78;12.50;;;5.70;99.90;;;;;;5033281;28;20169;-89
2022/10/09 06:19:06;;;;;;;70.95;12.70;;;5.80;99.90;;;;;;5032939;28;20264;-89
2022/10/09 06:21:33;;;;;;;70.85;13.40;;;5.80;99.90;;;;;;5035200;28;20161;-89
2022/10/09 06:24:01;;;;;;;71.90;11.98;;;5.80;99.90;;;;;;5037751;28;20634;-89
2022/10/09 06:26:28;;;;;;;72.18;12.50;;;5.70;99.90;;;;;;5036938;28;20200;-89
2022/10/09 06:28:55;;;;;;;74.88;12.38;;;5.80;99.90;;;;;;5036698;28;20188;-89
2022/10/09 06:31:23;;;;;;;76.03;12.57;;;5.80;99.90;;;;;;5019437;28;20173;-89
2022/10/09 06:33:51;;;;;;;73.93;13.75;;;5.80;99.90;;;;;;5037081;28;20169;-89
2022/10/09 06:36:23;;;;;;;70.93;13.30;;;6.00;99.90;;;;;;5018973;28;20175;-88
2022/10/09 06:38:49;;;;;;;69.97;12.75;;;6.00;99.90;;;;;;5019145;28;20196;-88
2022/10/09 06:41:23;;;;;;;72.43;15.27;;;6.10;99.90;;;;;;5036614;28;20179;-88
2022/10/09 06:43:54;;;;;;;81.88;14.50;;;6.20;99.90;;;;;;5018875;28;20243;-88
2022/10/09 06:46:23;;;;;;;74.43;13.38;;;6.30;99.90;;;;;;5036872;28;20154;-88
2022/10/09 06:48:49;;;;;;;72.40;15.10;;;6.40;99.90;;;;;;5036693;28;20692;-88
2022/10/09 06:51:17;;;;;;;71.53;13.37;;;6.50;99.90;;;;;;5036524;28;20172;-88
2022/10/09 06:53:46;;;;;;;74.60;16.60;;;6.60;99.90;;;;;;5036451;28;20240;-88
2022/10/09 06:56:12;;;;;;;76.95;14.80;;;6.60;99.90;;;;;;5036432;28;20215;-88
2022/10/09 06:58:38;;;;;;;73.18;16.20;;;6.70;99.90;;;;;;5036345;28;20225;-88
2022/10/09 07:01:11;;;;;;;73.63;15.55;;;6.70;99.90;;;;;;5018600;28;20180;-88
2022/10/09 07:03:39;;;;;;;76.78;14.45;;;6.80;99.90;;;;;;5036485;28;20173;-88
2022/10/09 07:06:13;;;;;;;74.82;13.07;;;6.80;99.90;;;;;;5036285;28;20177;-88
2022/10/09 07:08:41;;;;;;;74.45;14.07;;;6.90;99.90;;;;;;5036338;28;20327;-88
2022/10/09 07:11:11;;;;;;;75.78;13.63;;;7.00;99.90;;;;;;5018371;28;20173;-88
2022/10/09 07:13:41;;;;;;;76.35;15.85;;;7.00;99.90;;;;;;5036324;28;20637;-88
2022/10/09 07:16:07;;;;;;;73.30;15.80;;;7.10;99.90;;;;;;5036018;28;20172;-89
2022/10/09 07:18:36;;;;;;;74.25;14.45;;;7.20;99.90;;;;;;5036351;28;20212;-88
2022/10/09 07:21:04;;;;;;;71.82;13.25;;;7.20;99.90;;;;;;5018293;28;20264;-88
2022/10/09 07:23:30;;;;;;;77.30;15.35;;;7.20;99.90;;;;;;5018131;28;20587;-88
2022/10/09 07:26:00;;;;;;;74.15;16.52;;;7.30;99.90;;;;;;5035897;28;20166;-88
2022/10/09 07:28:27;;;;;;;74.90;16.70;;;7.30;99.90;;;;;;5018753;28;20239;-88
2022/10/09 07:30:53;;;;;;;80.47;17.05;;;7.30;99.90;;;;;;5035754;28;20249;-88
2022/10/09 07:33:19;;;;;;;77.37;18.70;;;7.30;99.90;;;;;;5035608;28;20240;-88
2022/10/09 07:35:56;;;;;;;76.83;17.73;;;7.30;99.90;;;;;;5035973;28;20458;-89
2022/10/09 07:38:23;;;;;;;74.22;17.75;;;7.40;99.90;;;;;;5035730;28;20181;-88
2022/10/09 07:40:49;;;;;;;75.38;18.95;;;7.40;99.90;;;;;;5035579;28;20686;-88
2022/10/09 07:43:19;;;;;;;76.68;18.75;;;7.50;99.90;;;;;;5035621;28;20176;-88
2022/10/09 07:45:45;;;;;;;76.22;18.15;;;7.50;99.90;;;;;;5035750;28;20169;-89
2022/10/09 07:48:11;;;;;;;73.17;18.40;;;7.60;99.90;;;;;;5035353;28;20276;-88
2022/10/09 07:50:36;;;;;;;77.80;17.33;;;7.70;99.90;;;;;;5035329;28;20586;-88
2022/10/09 07:53:02;;;;;;;75.50;18.03;;;7.70;99.90;;;;;;5035645;28;20833;-88
2022/10/09 07:55:28;;;;;;;77.60;17.48;;;7.80;99.90;;;;;;5035299;28;20161;-88
2022/10/09 07:57:54;;;;;;;77.27;17.90;;;7.90;99.90;;;;;;5017543;28;20251;-88
2022/10/09 08:00:19;;;;;;;78.40;19.10;;;7.90;99.90;;;;;;5017411;28;20567;-88
2022/10/09 08:02:45;;;;;;;75.00;18.43;;;7.90;99.90;;;;;;5017495;28;20219;-88
2022/10/09 08:05:11;;;;;;;75.30;20.53;;;8.00;99.90;;;;;;5017531;28;20541;-88
2022/10/09 08:07:36;;;;;;;78.83;19.80;;;8.00;99.90;;;;;;5035841;28;20683;-88
2022/10/09 08:10:03;;;;;;;75.47;18.50;;;8.10;99.90;;;;;;5017247;28;20271;-88
2022/10/09 08:12:29;;;;;;;73.10;18.77;;;8.20;99.90;;;;;;5017537;28;20165;-88
2022/10/09 08:14:55;;;;;;;75.17;17.77;;;8.20;99.90;;;;;;5018091;28;20235;-88
2022/10/09 08:17:20;;;;;;;76.57;17.90;;;8.30;99.90;;;;;;5035113;28;20685;-88
2022/10/09 08:19:46;;;;;;;75.20;21.33;;;8.30;99.90;;;;;;5034820;28;20412;-88
2022/10/09 08:22:12;;;;;;;76.27;21.23;;;8.40;99.90;;;;;;5034804;28;20190;-88
2022/10/09 08:24:38;;;;;;;77.60;20.97;;;8.40;99.90;;;;;;5034773;28;20260;-88
2022/10/09 08:27:05;;;;;;;82.78;21.95;;;8.50;99.90;;;;;;5034964;28;20158;-88
2022/10/09 08:29:30;;;;;;;74.50;21.38;;;8.60;99.90;;;;;;5034500;28;20327;-89
2022/10/09 08:31:59;;;;;;;75.57;20.60;;;8.70;99.90;;;;;;5034928;28;20709;-89
2022/10/09 08:34:24;;;;;;;85.68;19.50;;;8.70;99.90;;;;;;5034844;28;20648;-88
2022/10/09 08:36:50;;;;;;;84.07;21.53;;;8.80;99.90;;;;;;5034492;28;20170;-88
2022/10/09 08:39:16;;;;;;;76.27;21.20;;;8.90;99.90;;;;;;5034371;28;20189;-88
2022/10/09 08:41:48;;;;;;;73.90;22.17;;;9.00;99.90;;;;;;5034709;28;20173;-89
2022/10/09 08:44:26;;;;;;;73.32;21.05;;;9.00;99.90;;;;;;5033580;28;20431;-88
2022/10/09 08:47:09;;;;;;;74.25;20.73;;;9.10;99.90;;;;;;5034640;28;20157;-88
2022/10/09 08:49:44;;;;;;;75.57;19.58;;;9.10;99.90;;;;;;5034204;28;20193;-89
2022/10/09 08:52:46;;;;;;;76.43;18.27;;;9.20;99.90;;;;;;5016529;28;20165;-88
2022/10/09 08:55:19;;;;;;;74.00;16.38;;;9.40;99.90;;;;;;5031921;28;20247;-88
2022/10/09 08:57:48;;;;;;;72.47;16.20;;;9.40;99.90;;;;;;5034107;28;20150;-88
2022/10/09 09:00:16;;;;;;;76.55;14.05;;;9.50;99.90;;;;;;5016396;28;20165;-89
2022/10/09 09:03:03;;;;;;;79.55;14.15;;;9.60;99.90;;;;;;5034071;28;20165;-86
2022/10/09 09:05:53;;;;;;;69.25;11.20;;;9.70;99.90;;;;;;5016141;28;20264;-86
2022/10/09 09:09:02;;;;;;;71.82;8.65;;;9.80;99.90;;;;;;5016311;28;20284;-86
2022/10/09 09:11:56;;;;;;;70.25;9.05;;;9.90;99.90;;;;;;4981114;28;20186;-86
2022/10/09 09:14:51;;;;;;;70.93;9.88;;;10.00;99.90;;;;;;5014610;28;20177;-86
2022/10/09 09:17:36;;;;;;;71.90;11.05;;;10.10;99.90;;;;;;5024674;28;20230;-86
2022/10/09 09:20:05;;;;;;;72.20;13.20;;;10.20;99.90;;;;;;5034327;28;20207;-86
2022/10/09 09:22:32;;;;;;;76.65;22.50;;;10.40;99.90;;;;;;5033923;28;20692;-86
2022/10/09 09:24:59;;;;;;;84.53;32.08;;;10.40;99.90;;;;;;5033863;28;20259;-86
2022/10/09 09:27:32;;;;;;;81.93;39.67;;;10.60;99.90;;;;;;5034005;28;20169;-86
2022/10/09 09:30:32;;;;;;;78.95;37.70;;;10.60;99.90;;;;;;5033878;28;20200;-86
2022/10/09 09:33:24;;;;;;;83.55;52.63;;;10.80;99.90;;;;;;5034068;28;20605;-86
2022/10/09 09:36:12;;;;;;;80.53;39.28;;;11.00;99.90;;;;;;5027942;28;20263;-86
2022/10/09 09:38:37;;;;;;;71.22;16.70;;;11.10;99.90;;;;;;5015968;28;20239;-85
2022/10/09 09:41:04;;;;;;;74.07;17.87;;;11.30;99.90;;;;;;5034769;28;20161;-85
2022/10/09 09:43:30;;;;;;;69.50;12.75;;;11.50;99.90;;;;;;5035912;28;20166;-85
2022/10/09 09:46:00;;;;;;;74.43;11.57;;;11.60;99.90;;;;;;5034277;28;20724;-85
2022/10/09 09:48:38;;;;;;;69.70;10.13;;;11.70;99.90;;;;;;5033606;28;20178;-85
2022/10/09 09:51:28;;;;;;;67.35;9.38;;;11.90;99.90;;;;;;5033378;28;20165;-85
2022/10/09 09:54:06;;;;;;;68.28;9.77;;;12.00;99.90;;;;;;5033373;28;20152;-85
2022/10/09 09:56:40;;;;;;;70.30;10.05;;;12.10;99.90;;;;;;5015525;28;20162;-85
2022/10/09 09:59:23;;;;;;;73.72;9.05;;;12.30;99.90;;;;;;5033134;28;20180;-85
2022/10/09 10:02:02;;;;;;;72.50;8.68;;;12.50;99.90;;;;;;5033226;28;20527;-85
2022/10/09 10:04:28;;;;;;;69.28;8.70;;;12.60;99.90;;;;;;5033168;28;20149;-85
2022/10/09 10:06:54;;;;;;;68.80;7.13;;;12.70;99.90;;;;;;5015372;28;20199;-85
2022/10/09 10:09:20;;;;;;;68.97;6.90;;;12.90;99.90;;;;;;5033075;28;20189;-85
2022/10/09 10:12:02;;;;;;;67.10;6.53;;;13.00;99.90;;;;;;5033193;28;20766;-85
2022/10/09 10:14:29;;;;;;;70.97;7.20;;;13.20;95.10;;;;;;5033109;28;20161;-85
2022/10/09 10:16:56;;;;;;;70.30;7.27;;;13.20;95.40;;;;;;5033323;28;20544;-85
2022/10/09 10:19:26;;;;;;;69.05;7.20;;;13.40;92.60;;;;;;5033019;28;20903;-85
2022/10/09 10:21:54;;;;;;;68.93;5.63;;;13.60;91.00;;;;;;5015592;28;20169;-85
2022/10/09 10:24:31;;;;;;;67.75;5.90;;;13.70;83.90;;;;;;5033280;28;20244;-85
2022/10/09 10:27:21;;;;;;;66.80;6.00;;;13.90;81.20;;;;;;5033244;28;20521;-85
2022/10/09 10:29:51;;;;;;;68.10;5.57;;;14.10;82.10;;;;;;5015904;28;20883;-85
2022/10/09 10:32:26;;;;;;;67.60;5.50;;;14.30;68.70;;;;;;5033001;28;20929;-85
2022/10/09 10:35:13;;;;;;;71.50;5.90;;;14.30;65.30;;;;;;5033500;28;20713;-85
2022/10/09 10:37:53;;;;;;;66.87;5.40;;;14.50;62.90;;;;;;5032847;28;20373;-85
2022/10/09 10:40:27;;;;;;;71.17;6.00;;;14.50;59.80;;;;;;5032891;28;20391;-85
2022/10/09 10:42:52;;;;;;;69.27;6.13;;;14.70;54.90;;;;;;5015422;28;20404;-85
2022/10/09 10:45:25;;;;;;;72.30;7.10;;;14.70;48.70;;;;;;5032822;28;20403;-85
2022/10/09 10:47:54;;;;;;;71.87;7.50;;;14.90;51.40;;;;;;5015037;28;20598;-85
2022/10/09 10:50:21;;;;;;;71.60;6.40;;;15.00;46.40;;;;;;5032686;28;20452;-85
2022/10/09 10:53:00;;;;;;;66.77;5.40;;;15.10;51.40;;;;;;5032712;28;20418;-85
2022/10/09 10:55:49;;;;;;;70.03;6.87;;;15.30;36.60;;;;;;5032760;28;20530;-85
2022/10/09 10:58:44;;;;;;;74.53;5.47;;;15.40;33.60;;;;;;5032117;28;20518;-85
2022/10/09 11:01:22;;;;;;;69.13;5.30;;;15.40;27.20;;;;;;5029049;28;20420;-85
2022/10/09 11:04:25;;;;;;;68.07;5.57;;;15.70;34.50;;;;;;5032870;28;20886;-85
2022/10/09 11:07:04;;;;;;;69.07;6.27;;;15.60;23.80;;;;;;5110189;22;20471;-84
2022/10/09 11:10:00;;;;;;;67.37;7.17;;;15.60;20.30;;;;;;5044831;28;20487;-85
2022/10/09 11:12:47;;;;;;;69.27;6.23;;;15.80;22.60;;;;;;5044139;28;20372;-85
2022/10/09 11:15:40;;;;;;;70.80;6.63;;;15.90;15.90;;;;;;5047050;28;20416;-85
2022/10/09 11:18:14;;;;;;;71.17;5.77;;;16.00;15.10;;;;;;5045135;28;20785;-84
2022/10/09 11:20:52;;;;;;;67.30;4.00;;;16.10;14.80;;;;;;5019865;28;20438;-84
2022/10/09 11:23:29;;;;;;;68.40;4.20;;;16.30;1.30;;;;;;5037328;28;20454;-84
2022/10/09 11:25:58;;;;;;;68.97;4.43;;;16.20;1.00;;;;;;5037818;28;20373;-84
2022/10/09 11:28:29;;;;;;;73.23;4.30;;;16.30;1.00;;;;;;5040364;28;20600;-86
2022/10/09 11:31:03;;;;;;;66.13;3.50;;;16.30;1.00;;;;;;5048529;28;20457;-85
2022/10/09 11:33:48;;;;;;;66.23;3.97;;;16.30;1.00;;;;;;5040299;28;20920;-85
2022/10/09 11:36:35;;;;;;;67.13;3.40;;;16.40;1.00;;;;;;5023186;28;20460;-84
2022/10/09 11:39:04;;;;;;;66.47;3.73;;;16.60;1.00;;;;;;5040631;28;20426;-85
2022/10/09 11:41:30;;;;;;;66.10;3.70;;;16.70;1.00;;;;;;5022395;28;20410;-84
2022/10/09 11:44:30;;;;;;;65.70;4.33;;;16.80;1.00;;;;;;5039734;28;20425;-84
2022/10/09 11:47:22;;;;;;;65.77;3.43;;;16.80;1.00;;;;;;5019714;28;20769;-84
2022/10/09 11:50:08;;;;;;;66.00;3.60;;;16.70;1.00;;;;;;5037286;28;20469;-84
2022/10/09 11:52:45;;;;;;;69.00;3.93;;;16.80;1.00;;;;;;5037026;28;20454;-84
2022/10/09 11:55:20;;;;;;;66.60;3.87;;;16.70;1.00;;;;;;5020156;28;20411;-85
2022/10/09 11:57:46;;;;;;;65.80;3.70;;;16.80;1.00;;;;;;5019652;28;20909;-84
2022/10/09 12:00:14;;;;;;;68.00;4.33;;;16.70;1.00;;;;;;5036284;28;20403;-84
2022/10/09 12:02:41;;;;;;;67.23;4.40;;;16.80;1.00;;;;;;5020814;28;20409;-84
2022/10/09 12:05:31;;;;;;;68.10;4.57;;;16.80;1.00;;;;;;5020056;28;20419;-85
2022/10/09 12:08:07;;;;;;;68.97;4.10;;;17.00;1.00;;;;;;5037855;28;20466;-84
2022/10/09 12:10:33;;;;;;;65.60;3.93;;;17.20;1.00;;;;;;5037892;28;20453;-84
2022/10/09 12:13:02;;;;;;;68.03;4.00;;;17.20;1.00;;;;;;5038147;28;20452;-84
2022/10/09 12:15:47;;;;;;;70.90;3.60;;;17.10;1.00;;;;;;5038547;28;20438;-84
2022/10/09 12:18:31;;;;;;;69.20;3.43;;;17.10;1.00;;;;;;5019731;28;20978;-84
2022/10/09 12:21:00;;;;;;;65.87;3.70;;;17.10;1.00;;;;;;5038785;28;20403;-84
2022/10/09 12:23:30;;;;;;;67.23;3.60;;;17.40;1.00;;;;;;5037974;28;20423;-84
2022/10/09 12:25:57;;;;;;;67.47;4.00;;;17.50;1.00;;;;;;5038181;28;20475;-84
2022/10/09 12:28:28;;;;;;;66.50;3.20;;;17.50;1.00;;;;;;5019681;28;20811;-85
2022/10/09 12:30:56;;;;;;;65.77;3.20;;;17.50;1.00;;;;;;5037779;28;20439;-85
2022/10/09 12:33:29;;;;;;;67.80;3.10;;;17.40;1.00;;;;;;5019554;28;20412;-84
2022/10/09 12:36:05;;;;;;;68.50;3.30;;;17.40;1.00;;;;;;5019883;28;20404;-84
2022/10/09 12:38:31;;;;;;;66.23;3.00;;;17.30;1.00;;;;;;5037831;28;21053;-84
2022/10/09 12:41:01;;;;;;;69.50;3.27;;;17.30;1.00;;;;;;5037088;28;20446;-84
2022/10/09 12:43:29;;;;;;;69.00;3.93;;;17.30;1.00;;;;;;5035857;28;20412;-84
2022/10/09 12:45:55;;;;;;;66.87;3.00;;;17.40;1.00;;;;;;5037105;28;20419;-84
2022/10/09 12:48:24;;;;;;;66.73;3.10;;;17.40;1.00;;;;;;5037331;28;20431;-84
2022/10/09 12:50:51;;;;;;;66.40;3.13;;;17.40;1.00;;;;;;5037713;28;20192;-85
2022/10/09 12:53:21;;;;;;;66.67;3.33;;;17.50;1.00;;;;;;5036774;28;20407;-84
2022/10/09 12:55:54;;;;;;;67.83;3.57;;;17.40;1.00;;;;;;5036780;28;20467;-84